CW8429 Weather Reports


Display with metric or nautical units.
time (UTC)temp
F
wind
direction
speed
MPH
gust
MPH
rain 1hr
in
rain 24hr
in
rain mn
in
humidity
%
barometer
mb
20240616144615 58 159 0.0 3.0 0.00 0.00 0.00 47 1013.7
20240616143630 58 148 0.0 0.0 0.00 0.00 0.00 44 1013.6
20240616142622 58 144 0.0 0.0 0.00 0.00 0.00 43 1013.7
20240616141652 57 142 0.0 0.0 0.00 0.00 0.00 52 1013.7
20240616140622 55 141 0.0 0.0 0.00 0.00 0.00 56 1013.7
20240616135630 54 141 0.0 2.0 0.00 0.00 0.00 57 1013.7
20240616134643 53 141 0.0 2.0 0.00 0.00 0.00 58 1013.8
20240616133614 51 142 0.0 1.0 0.00 0.00 0.00 55 1013.7
20240616132646 51 141 1.0 4.0 0.00 0.00 0.00 56 1013.7
20240616131621 50 142 0.0 4.0 0.00 0.00 0.00 58 1013.7
20240616130614 50 117 2.0 6.0 0.00 0.00 0.00 55 1013.8
20240616125617 50 108 2.0 6.0 0.00 0.00 0.00 55 1013.7
20240616124651 50 117 4.0 8.0 0.00 0.00 0.00 55 1013.7
20240616123624 49 115 4.0 7.0 0.00 0.00 0.00 55 1013.9
20240616122621 49 120 4.0 7.0 0.00 0.00 0.00 55 1013.9
20240616121634 49 119 5.0 9.0 0.00 0.00 0.00 56 1013.8
20240616120647 48 128 5.0 11.0 0.00 0.00 0.00 56 1013.5
20240616115630 49 129 4.0 10.0 0.00 0.00 0.00 55 1013.5
20240616114642 49 138 6.0 8.0 0.00 0.00 0.00 54 1013.5
20240616113616 49 130 7.0 9.0 0.00 0.00 0.00 54 1013.5
20240616112628 48 112 7.0 9.0 0.00 0.00 0.00 54 1013.5
20240616111642 48 121 8.0 10.0 0.00 0.00 0.00 54 1013.5
20240616110635 49 121 6.0 9.0 0.00 0.00 0.00 53 1013.6
20240616105623 49 119 7.0 9.0 0.00 0.00 0.00 53 1013.5
20240616104617 49 117 5.0 8.0 0.00 0.00 0.00 53 1013.7
20240616103629 49 155 4.0 6.0 0.00 0.00 0.00 53 1013.6
20240616102623 49 123 5.0 7.0 0.00 0.00 0.00 53 1013.5
20240616101614 50 121 4.0 6.0 0.00 0.00 0.00 53 1013.4
20240616100626 49 128 3.0 5.0 0.00 0.00 0.00 53 1013.4
20240616095629 49 194 0.0 2.0 0.00 0.00 0.00 57 1013.4
20240616094625 50 194 1.0 2.0 0.00 0.00 0.00 57 1013.4
20240616093618 52 183 1.0 3.0 0.00 0.00 0.00 51 1013.3
20240616092631 53 167 3.0 6.0 0.00 0.00 0.00 48 1013.3
20240616091625 53 135 3.0 5.0 0.00 0.00 0.00 44 1013.3
20240616090622 53 141 3.0 6.0 0.00 0.00 0.00 44 1013.2
20240616085646 54 128 4.0 7.0 0.00 0.00 0.00 43 1013.1
20240616084639 54 260 0.0 4.0 0.00 0.00 0.00 44 1013.2
20240616083631 55 257 2.0 9.0 0.00 0.00 0.00 45 1013.2
20240616082629 55 360 2.0 6.0 0.00 0.00 0.00 47 1013.3
20240616081643 55 344 1.0 6.0 0.00 0.00 0.00 49 1013.3
20240616080615 55 345 3.0 8.0 0.00 0.00 0.00 49 1013.2
20240616075618 55 360 3.0 9.0 0.00 0.00 0.00 50 1013.2
20240616074614 56 292 3.0 9.0 0.00 0.00 0.00 51 1013.3
20240616073626 56 300 6.0 11.0 0.00 0.00 0.00 50 1013.2
20240616072618 56 302 4.0 7.0 0.00 0.00 0.00 47 1013.0
20240616071630 56 325 4.0 9.0 0.00 0.00 0.00 46 1012.9
20240616070628 57 17 5.0 11.0 0.00 0.00 0.00 46 1012.8
20240616065614 57 302 4.0 11.0 0.00 0.00 0.00 49 1012.8
20240616064628 57 322 4.0 11.0 0.00 0.00 0.00 51 1012.8
20240616063640 57 300 6.0 12.0 0.00 0.00 0.00 52 1012.8
20240616062634 58 297 6.0 12.0 0.00 0.00 0.00 52 1012.9
20240616061626 57 339 3.0 8.0 0.00 0.00 0.00 50 1012.8
20240616060623 57 269 5.0 12.0 0.00 0.00 0.00 51 1012.8
20240616055627 57 306 4.0 7.0 0.00 0.00 0.00 53 1012.8
20240616054623 58 292 3.0 16.0 0.00 0.00 0.00 50 1012.9
20240616053615 58 286 5.0 14.0 0.00 0.00 0.00 51 1012.9
20240616052626 59 299 9.0 16.0 0.00 0.00 0.00 51 1012.7
20240616051617 59 302 7.0 16.0 0.00 0.00 0.00 50 1012.7
20240616050613 59 315 6.0 14.0 0.00 0.00 0.00 49 1012.5
20240616045618 60 276 10.0 15.0 0.00 0.00 0.00 50 1012.5
20240616044631 60 300 7.0 17.0 0.00 0.00 0.00 52 1012.4
20240616043624 60 299 11.0 17.0 0.00 0.00 0.00 52 1012.2
20240616042619 61 288 12.0 20.0 0.00 0.00 0.00 51 1012.1
20240616041631 62 318 14.0 23.0 0.00 0.00 0.00 49 1011.9
20240616040623 62 312 7.0 17.0 0.00 0.00 0.00 49 1011.8
20240616035631 63 299 11.0 19.0 0.00 0.00 0.00 50 1011.8
20240616034621 63 320 8.0 13.0 0.00 0.00 0.00 49 1011.5
20240616033631 63 336 9.0 16.0 0.00 0.00 0.00 47 1011.3
20240616032642 64 302 11.0 18.0 0.00 0.00 0.00 50 1011.1
20240616031636 64 314 11.0 15.0 0.00 0.00 0.00 53 1011.1
20240616030626 68 255 0.0 2.0 0.00 0.00 0.00 33 1011.0
20240616025628 69 140 1.0 3.0 0.00 0.00 0.00 29 1010.7
20240616024620 69 134 0.0 3.0 0.00 0.00 0.00 31 1010.7
20240616023615 70 131 1.0 5.0 0.00 0.00 0.00 25 1010.6
20240616022628 71 234 3.0 4.0 0.00 0.00 0.00 26 1010.7
20240616021619 71 287 2.0 3.0 0.00 0.00 0.00 26 1010.7
20240616020632 72 286 0.0 2.0 0.00 0.00 0.00 25 1010.7
20240616015639 72 286 0.0 3.0 0.00 0.00 0.00 25 1010.8
20240616014629 73 284 0.0 4.0 0.00 0.00 0.00 24 1010.8
20240616013620 75 288 2.0 5.0 0.00 0.00 0.00 24 1010.7
20240616012613 76 289 1.0 5.0 0.00 0.00 0.00 20 1010.8
20240616011628 75 26 1.0 9.0 0.00 0.00 0.00 20 1010.8
20240616010619 75 324 1.0 4.0 0.00 0.00 0.00 20 1010.7
20240616005622 74 303 1.0 4.0 0.00 0.00 0.00 25 1010.8
20240616004613 74 298 1.0 6.0 0.00 0.00 0.00 28 1010.8
20240616003626 74 286 1.0 4.0 0.00 0.00 0.00 24 1010.9
20240616002618 75 285 1.0 8.0 0.00 0.00 0.00 25 1010.9
20240616001630 76 295 2.0 10.0 0.00 0.00 0.00 22 1011.0
20240616000623 76 5 2.0 14.0 0.00 0.00 0.00 22 1011.0
20240615235631 77 286 2.0 14.0 0.00 0.00 0.00 20 1010.9
20240615234622 78 279 5.0 11.0 0.00 0.00 0.00 19 1011.1
20240615233614 78 243 3.0 13.0 0.00 0.00 0.00 20 1011.0
20240615224625 78 164 6.0 15.0 0.00 0.00 0.00 21 1011.4
20240615223637 77 271 7.0 14.0 0.00 0.00 0.00 22 1011.4
20240615222627 77 191 4.0 16.0 0.00 0.00 0.00 19 1011.6
20240615221623 78 355 3.0 10.0 0.00 0.00 0.00 22 1011.6
20240615220635 78 256 5.0 13.0 0.00 0.00 0.00 20 1011.8
20240615215616 78 302 7.0 19.0 0.00 0.00 0.00 20 1011.8
20240615214627 77 340 6.0 14.0 0.00 0.00 0.00 22 1011.8
20240615213623 78 296 5.0 13.0 0.00 0.00 0.00 20 1012.0
20240615212615 77 291 6.0 13.0 0.00 0.00 0.00 23 1012.0
20240615211628 78 202 8.0 11.0 0.00 0.00 0.00 20 1011.9
20240615210622 79 296 2.0 15.0 0.00 0.00 0.00 22 1011.8
20240615205612 78 293 6.0 16.0 0.00 0.00 0.00 23 1011.8
20240615204625 79 350 5.0 12.0 0.00 0.00 0.00 23 1011.9
20240615203640 78 130 4.0 11.0 0.00 0.00 0.00 23 1011.9
20240615202616 78 278 7.0 13.0 0.00 0.00 0.00 22 1011.9
20240615201631 78 288 6.0 13.0 0.00 0.00 0.00 21 1012.0
20240615200644 78 140 3.0 12.0 0.00 0.00 0.00 21 1012.1
20240615195648 79 286 4.0 14.0 0.00 0.00 0.00 20 1012.3
20240615194619 79 285 7.0 16.0 0.00 0.00 0.00 22 1012.3
20240615193614 78 300 7.0 14.0 0.00 0.00 0.00 22 1012.4
20240615192646 77 288 9.0 18.0 0.00 0.00 0.00 21 1012.6
20240615191615 77 302 9.0 19.0 0.00 0.00 0.00 21 1012.6
20240615190627 77 302 8.0 14.0 0.00 0.00 0.00 22 1012.8
20240615185617 76 257 6.0 12.0 0.00 0.00 0.00 22 1012.6
20240615184631 76 340 4.0 14.0 0.00 0.00 0.00 24 1012.8
20240615183625 77 272 6.0 13.0 0.00 0.00 0.00 23 1012.7
20240615182624 76 301 6.0 12.0 0.00 0.00 0.00 24 1012.8
20240615181618 76 68 3.0 13.0 0.00 0.00 0.00 22 1012.9
20240615180616 76 299 5.0 12.0 0.00 0.00 0.00 24 1012.9
20240615175617 76 250 6.0 12.0 0.00 0.00 0.00 22 1012.9
20240615174627 75 258 4.0 12.0 0.00 0.00 0.00 24 1013.0
20240615173643 76 285 3.0 11.0 0.00 0.00 0.00 22 1013.1
20240615172613 76 278 5.0 13.0 0.00 0.00 0.00 21 1013.1
20240615171623 76 300 4.0 13.0 0.00 0.00 0.00 23 1013.0
20240615170651 74 286 3.0 11.0 0.00 0.00 0.00 23 1013.1
20240615165637 74 298 4.0 13.0 0.00 0.00 0.00 21 1013.2
20240615164625 74 119 7.0 12.0 0.00 0.00 0.00 19 1013.3
20240615163624 74 267 5.0 14.0 0.00 0.00 0.00 21 1013.0
20240615162614 74 173 7.0 18.0 0.00 0.00 0.00 18 1013.0
20240615161630 73 168 3.0 8.0 0.00 0.00 0.00 24 1013.0
20240615160640 73 30 3.0 14.0 0.00 0.00 0.00 26 1012.9
20240615155621 72 132 4.0 11.0 0.00 0.00 0.00 27 1013.1
20240615154613 72 92 4.0 15.0 0.00 0.00 0.00 26 1013.2
20240615153629 72 81 6.0 20.0 0.00 0.00 0.00 26 1013.0
20240615152621 73 104 8.0 11.0 0.00 0.00 0.00 26 1012.9
20240615151615 73 121 8.0 18.0 0.00 0.00 0.00 26 1013.1
20240615150648 71 116 6.0 11.0 0.00 0.00 0.00 30 1013.2
20240615145615 70 198 4.0 15.0 0.00 0.00 0.00 31 1013.4